sensor_id;sensor_type;location;lat;lon;timestamp;pressure;altitude;pressure_sealevel;temperature;humidity
48624;BME280;75490;45.802;16.114;2024-02-26T00:00:08;64103.91;;;2.89;100.00
48624;BME280;75490;45.802;16.114;2024-02-26T00:02:38;64107.63;;;2.90;100.00
48624;BME280;75490;45.802;16.114;2024-02-26T00:05:07;64107.59;;;2.85;100.00
48624;BME280;75490;45.802;16.114;2024-02-26T00:07:35;64103.91;;;2.87;100.00
48624;BME280;75490;45.802;16.114;2024-02-26T00:10:02;64103.88;;;2.84;100.00
48624;BME280;75490;45.802;16.114;2024-02-26T00:12:29;64092.16;;;2.78;100.00
48624;BME280;75490;45.802;16.114;2024-02-26T00:14:56;64088.94;;;2.75;100.00
48624;BME280;75490;45.802;16.114;2024-02-26T00:17:24;64106.50;;;2.84;100.00
48624;BME280;75490;45.802;16.114;2024-02-26T00:19:51;64098.00;;;2.81;100.00
48624;BME280;75490;45.802;16.114;2024-02-26T00:22:18;64106.56;;;2.89;100.00
48624;BME280;75490;45.802;16.114;2024-02-26T00:24:45;64109.25;;;2.94;100.00
48624;BME280;75490;45.802;16.114;2024-02-26T00:27:12;64110.84;;;2.93;100.00
48624;BME280;75490;45.802;16.114;2024-02-26T00:29:39;64110.88;;;2.96;100.00
48624;BME280;75490;45.802;16.114;2024-02-26T00:32:06;64110.78;;;2.88;100.00
48624;BME280;75490;45.802;16.114;2024-02-26T00:34:33;64123.09;;;3.00;100.00
48624;BME280;75490;45.802;16.114;2024-02-26T00:37:01;64118.81;;;2.96;100.00
48624;BME280;75490;45.802;16.114;2024-02-26T00:39:28;64113.03;;;3.00;100.00
48624;BME280;75490;45.802;16.114;2024-02-26T00:41:55;64115.16;;;3.00;100.00
48624;BME280;75490;45.802;16.114;2024-02-26T00:44:22;64117.25;;;2.99;100.00
48624;BME280;75490;45.802;16.114;2024-02-26T00:46:49;64111.88;;;2.92;100.00
48624;BME280;75490;45.802;16.114;2024-02-26T00:49:16;64115.13;;;2.97;100.00
48624;BME280;75490;45.802;16.114;2024-02-26T00:51:43;64118.84;;;3.01;100.00
48624;BME280;75490;45.802;16.114;2024-02-26T00:54:10;64120.97;;;3.00;100.00
48624;BME280;75490;45.802;16.114;2024-02-26T00:56:37;64110.84;;;2.93;100.00
48624;BME280;75490;45.802;16.114;2024-02-26T00:59:03;64103.38;;;2.86;100.00
48624;BME280;75490;45.802;16.114;2024-02-26T01:01:30;64099.63;;;2.82;100.00
48624;BME280;75490;45.802;16.114;2024-02-26T01:03:58;64094.78;;;2.78;100.00
48624;BME280;75490;45.802;16.114;2024-02-26T01:06:24;64091.03;;;2.74;100.00
48624;BME280;75490;45.802;16.114;2024-02-26T01:08:51;64085.19;;;2.69;100.00
48624;BME280;75490;45.802;16.114;2024-02-26T01:11:20;64080.34;;;2.62;100.00
48624;BME280;75490;45.802;16.114;2024-02-26T01:13:47;64078.72;;;2.60;100.00
48624;BME280;75490;45.802;16.114;2024-02-26T01:16:13;64079.25;;;2.61;100.00
48624;BME280;75490;45.802;16.114;2024-02-26T01:18:40;64076.03;;;2.55;100.00
48624;BME280;75490;45.802;16.114;2024-02-26T01:21:07;64070.16;;;2.49;100.00
48624;BME280;75490;45.802;16.114;2024-02-26T01:23:35;64073.44;;;2.58;100.00
48624;BME280;75490;45.802;16.114;2024-02-26T01:26:02;64069.72;;;2.57;100.00
48624;BME280;75490;45.802;16.114;2024-02-26T01:28:31;64075.50;;;2.55;100.00
48624;BME280;75490;45.802;16.114;2024-02-26T01:30:58;64070.72;;;2.53;100.00
48624;BME280;75490;45.802;16.114;2024-02-26T01:33:26;64070.16;;;2.49;100.00
48624;BME280;75490;45.802;16.114;2024-02-26T01:35:53;64055.31;;;2.45;100.00
48624;BME280;75490;45.802;16.114;2024-02-26T01:38:20;64062.69;;;2.42;100.00
48624;BME280;75490;45.802;16.114;2024-02-26T01:40:47;64046.72;;;2.32;100.00
48624;BME280;75490;45.802;16.114;2024-02-26T01:43:14;64050.41;;;2.31;100.00
48624;BME280;75490;45.802;16.114;2024-02-26T01:45:41;64039.22;;;2.25;100.00
48624;BME280;75490;45.802;16.114;2024-02-26T01:48:08;64034.94;;;2.21;100.00
48624;BME280;75490;45.802;16.114;2024-02-26T01:50:37;64032.78;;;2.19;100.00
48624;BME280;75490;45.802;16.114;2024-02-26T01:53:04;64035.50;;;2.24;100.00
48624;BME280;75490;45.802;16.114;2024-02-26T01:55:32;64029.56;;;2.13;100.00
48624;BME280;75490;45.802;16.114;2024-02-26T01:57:59;64021.56;;;2.06;100.00
48624;BME280;75490;45.802;16.114;2024-02-26T02:00:27;64015.72;;;2.03;100.00
48624;BME280;75490;45.802;16.114;2024-02-26T02:02:54;64020.50;;;2.05;100.00
48624;BME280;75490;45.802;16.114;2024-02-26T02:05:22;64014.63;;;1.99;100.00
48624;BME280;75490;45.802;16.114;2024-02-26T02:07:49;64013.56;;;2.01;100.00
48624;BME280;75490;45.802;16.114;2024-02-26T02:10:16;64018.88;;;2.01;100.00
48624;BME280;75490;45.802;16.114;2024-02-26T02:12:44;64016.78;;;2.04;100.00
48624;BME280;75490;45.802;16.114;2024-02-26T02:15:11;64013.00;;;1.98;100.00
48624;BME280;75490;45.802;16.114;2024-02-26T02:17:38;64016.13;;;1.93;100.00
48624;BME280;75490;45.802;16.114;2024-02-26T02:20:14;63987.88;;;1.71;100.00
48624;BME280;75490;45.802;16.114;2024-02-26T02:22:41;63988.94;;;1.72;100.00
48624;BME280;75490;45.802;16.114;2024-02-26T02:25:08;63962.28;;;1.52;100.00
48624;BME280;75490;45.802;16.114;2024-02-26T02:27:35;63942.03;;;1.33;100.00
48624;BME280;75490;45.802;16.114;2024-02-26T02:30:02;63946.31;;;1.39;100.00
48624;BME280;75490;45.802;16.114;2024-02-26T02:32:29;63960.13;;;1.45;100.00
48624;BME280;75490;45.802;16.114;2024-02-26T02:34:57;63963.31;;;1.48;100.00
48624;BME280;75490;45.802;16.114;2024-02-26T02:37:24;63969.72;;;1.54;100.00
48624;BME280;75490;45.802;16.114;2024-02-26T02:39:51;63976.72;;;1.63;100.00
48624;BME280;75490;45.802;16.114;2024-02-26T02:42:21;63983.09;;;1.69;100.00
48624;BME280;75490;45.802;16.114;2024-02-26T02:44:48;63979.94;;;1.69;100.00
48624;BME280;75490;45.802;16.114;2024-02-26T02:47:15;63968.72;;;1.58;100.00
48624;BME280;75490;45.802;16.114;2024-02-26T02:49:41;63977.25;;;1.66;100.00
48624;BME280;75490;45.802;16.114;2024-02-26T02:52:08;63980.97;;;1.67;100.00
48624;BME280;75490;45.802;16.114;2024-02-26T02:54:35;63972.47;;;1.62;100.00
48624;BME280;75490;45.802;16.114;2024-02-26T02:57:03;63979.34;;;1.66;100.00
48624;BME280;75490;45.802;16.114;2024-02-26T02:59:30;63982.59;;;1.71;100.00
48624;BME280;75490;45.802;16.114;2024-02-26T03:01:57;63982.00;;;1.66;100.00
48624;BME280;75490;45.802;16.114;2024-02-26T03:04:24;63982.53;;;1.66;100.00
48624;BME280;75490;45.802;16.114;2024-02-26T03:06:51;63979.91;;;1.66;100.00
48624;BME280;75490;45.802;16.114;2024-02-26T03:09:18;63984.69;;;1.68;100.00
48624;BME280;75490;45.802;16.114;2024-02-26T03:11:45;63978.31;;;1.67;100.00
48624;BME280;75490;45.802;16.114;2024-02-26T03:14:12;63978.28;;;1.62;100.00
48624;BME280;75490;45.802;16.114;2024-02-26T03:16:39;63969.22;;;1.56;100.00
48624;BME280;75490;45.802;16.114;2024-02-26T03:19:05;63960.69;;;1.48;100.00
48624;BME280;75490;45.802;16.114;2024-02-26T03:21:32;63947.31;;;1.33;100.00
48624;BME280;75490;45.802;16.114;2024-02-26T03:23:59;63941.50;;;1.32;100.00
48624;BME280;75490;45.802;16.114;2024-02-26T03:26:26;63947.31;;;1.33;100.00
48624;BME280;75490;45.802;16.114;2024-02-26T03:28:53;63939.88;;;1.31;100.00
48624;BME280;75490;45.802;16.114;2024-02-26T03:31:20;63928.13;;;1.17;100.00
48624;BME280;75490;45.802;16.114;2024-02-26T03:33:48;63906.75;;;0.94;100.00
48624;BME280;75490;45.802;16.114;2024-02-26T03:36:15;63899.81;;;0.90;100.00
48624;BME280;75490;45.802;16.114;2024-02-26T03:38:42;63904.09;;;0.94;100.00
48624;BME280;75490;45.802;16.114;2024-02-26T03:41:09;63907.81;;;0.98;100.00
48624;BME280;75490;45.802;16.114;2024-02-26T03:43:36;63907.84;;;1.00;100.00
48624;BME280;75490;45.802;16.114;2024-02-26T03:46:03;63916.88;;;1.04;100.00
48624;BME280;75490;45.802;16.114;2024-02-26T03:48:30;63914.81;;;1.07;100.00
48624;BME280;75490;45.802;16.114;2024-02-26T03:50:58;63920.63;;;1.08;100.00
48624;BME280;75490;45.802;16.114;2024-02-26T03:53:25;63914.81;;;1.07;100.00
48624;BME280;75490;45.802;16.114;2024-02-26T03:55:53;63906.84;;;1.04;100.00
48624;BME280;75490;45.802;16.114;2024-02-26T03:58:21;63903.53;;;0.91;100.00
48624;BME280;75490;45.802;16.114;2024-02-26T04:00:48;63902.44;;;0.88;100.00
48624;BME280;75490;45.802;16.114;2024-02-26T04:03:15;63910.00;;;1.02;100.00
48624;BME280;75490;45.802;16.114;2024-02-26T04:05:42;63914.81;;;1.10;100.00
48624;BME280;75490;45.802;16.114;2024-02-26T04:08:09;63922.78;;;1.12;100.00
48624;BME280;75490;45.802;16.114;2024-02-26T04:10:37;63914.28;;;1.06;100.00
48624;BME280;75490;45.802;16.114;2024-02-26T04:13:07;63922.22;;;1.12;100.00
48624;BME280;75490;45.802;16.114;2024-02-26T04:15:34;63918.53;;;1.11;100.00
48624;BME280;75490;45.802;16.114;2024-02-26T04:18:01;63921.69;;;1.09;100.00
48624;BME280;75490;45.802;16.114;2024-02-26T04:20:29;63911.56;;;1.01;100.00
48624;BME280;75490;45.802;16.114;2024-02-26T04:22:56;63916.28;;;0.98;100.00
48624;BME280;75490;45.802;16.114;2024-02-26T04:25:22;63907.28;;;0.97;100.00
48624;BME280;75490;45.802;16.114;2024-02-26T04:27:49;63900.91;;;0.91;100.00
48624;BME280;75490;45.802;16.114;2024-02-26T04:30:16;63892.91;;;0.86;100.00
48624;BME280;75490;45.802;16.114;2024-02-26T04:32:44;63900.88;;;0.89;100.00
48624;BME280;75490;45.802;16.114;2024-02-26T04:35:11;63905.69;;;0.93;100.00
48624;BME280;75490;45.802;16.114;2024-02-26T04:37:38;63906.75;;;0.94;100.00
48624;BME280;75490;45.802;16.114;2024-02-26T04:40:05;63898.75;;;0.89;100.00
48624;BME280;75490;45.802;16.114;2024-02-26T04:42:32;63891.84;;;0.85;100.00
48624;BME280;75490;45.802;16.114;2024-02-26T04:44:59;63887.53;;;0.76;100.00
48624;BME280;75490;45.802;16.114;2024-02-26T04:47:27;63876.84;;;0.66;100.00
48624;BME280;75490;45.802;16.114;2024-02-26T04:49:53;63868.38;;;0.63;100.00
48624;BME280;75490;45.802;16.114;2024-02-26T04:52:21;63874.22;;;0.66;100.00
48624;BME280;75490;45.802;16.114;2024-02-26T04:54:48;63864.59;;;0.54;100.00
48624;BME280;75490;45.802;16.114;2024-02-26T04:57:15;63858.19;;;0.48;100.00
48624;BME280;75490;45.802;16.114;2024-02-26T04:59:44;63847.47;;;0.35;100.00
48624;BME280;75490;45.802;16.114;2024-02-26T05:02:13;63846.97;;;0.38;100.00
48624;BME280;75490;45.802;16.114;2024-02-26T05:04:40;63842.25;;;0.38;100.00
48624;BME280;75490;45.802;16.114;2024-02-26T05:07:07;63843.84;;;0.40;100.00
48624;BME280;75490;45.802;16.114;2024-02-26T05:09:35;63841.16;;;0.34;100.00
48624;BME280;75490;45.802;16.114;2024-02-26T05:12:02;63840.56;;;0.31;100.00
48624;BME280;75490;45.802;16.114;2024-02-26T05:14:28;63836.91;;;0.33;100.00
48624;BME280;75490;45.802;16.114;2024-02-26T05:16:55;63836.88;;;0.30;100.00
48624;BME280;75490;45.802;16.114;2024-02-26T05:19:22;63836.88;;;0.30;100.00
48624;BME280;75490;45.802;16.114;2024-02-26T05:21:49;63837.41;;;0.31;100.00
48624;BME280;75490;45.802;16.114;2024-02-26T05:24:17;63840.16;;;0.41;100.00
48624;BME280;75490;45.802;16.114;2024-02-26T05:26:45;63849.19;;;0.47;100.00
48624;BME280;75490;45.802;16.114;2024-02-26T05:29:12;63862.47;;;0.55;100.00
48624;BME280;75490;45.802;16.114;2024-02-26T05:31:38;63860.91;;;0.56;100.00
48624;BME280;75490;45.802;16.114;2024-02-26T05:34:05;63866.19;;;0.56;100.00
48624;BME280;75490;45.802;16.114;2024-02-26T05:36:32;63859.78;;;0.50;100.00
48624;BME280;75490;45.802;16.114;2024-02-26T05:39:00;63868.31;;;0.58;100.00
48624;BME280;75490;45.802;16.114;2024-02-26T05:41:27;63864.56;;;0.52;100.00
48624;BME280;75490;45.802;16.114;2024-02-26T05:43:54;63858.78;;;0.54;100.00
48624;BME280;75490;45.802;16.114;2024-02-26T05:46:23;63865.09;;;0.52;100.00
48624;BME280;75490;45.802;16.114;2024-02-26T05:48:52;63857.22;;;0.57;100.00
48624;BME280;75490;45.802;16.114;2024-02-26T05:51:19;63863.00;;;0.53;100.00
48624;BME280;75490;45.802;16.114;2024-02-26T05:53:46;63864.06;;;0.54;100.00
48624;BME280;75490;45.802;16.114;2024-02-26T05:56:14;63850.22;;;0.46;100.00
48624;BME280;75490;45.802;16.114;2024-02-26T05:58:41;63854.50;;;0.50;100.00
48624;BME280;75490;45.802;16.114;2024-02-26T06:01:07;63865.09;;;0.55;100.00
48624;BME280;75490;45.802;16.114;2024-02-26T06:03:34;63856.66;;;0.52;100.00
48624;BME280;75490;45.802;16.114;2024-02-26T06:06:01;63860.91;;;0.56;100.00
48624;BME280;75490;45.802;16.114;2024-02-26T06:08:28;63864.63;;;0.59;100.00
48624;BME280;75490;45.802;16.114;2024-02-26T06:10:55;63879.00;;;0.70;100.00
48624;BME280;75490;45.802;16.114;2024-02-26T06:13:22;63889.09;;;0.75;100.00
48624;BME280;75490;45.802;16.114;2024-02-26T06:15:49;63896.06;;;0.84;100.00
48624;BME280;75490;45.802;16.114;2024-02-26T06:18:15;63906.75;;;0.94;100.00
48624;BME280;75490;45.802;16.114;2024-02-26T06:20:42;63909.94;;;0.97;100.00
48624;BME280;75490;45.802;16.114;2024-02-26T06:23:09;63910.53;;;1.03;100.00
48624;BME280;75490;45.802;16.114;2024-02-26T06:25:36;63917.41;;;1.04;100.00
48624;BME280;75490;45.802;16.114;2024-02-26T06:28:03;63913.69;;;1.03;100.00
48624;BME280;75490;45.802;16.114;2024-02-26T06:30:31;63928.66;;;1.18;100.00
48624;BME280;75490;45.802;16.114;2024-02-26T06:32:59;63932.94;;;1.22;100.00
48624;BME280;75490;45.802;16.114;2024-02-26T06:35:26;63937.19;;;1.26;100.00
48624;BME280;75490;45.802;16.114;2024-02-26T06:37:54;63945.69;;;1.31;100.00
48624;BME280;75490;45.802;16.114;2024-02-26T06:40:20;63954.78;;;1.40;100.00
48624;BME280;75490;45.802;16.114;2024-02-26T06:42:47;63945.22;;;1.36;100.00
48624;BME280;75490;45.802;16.114;2024-02-26T06:45:14;63949.50;;;1.40;100.00
48624;BME280;75490;45.802;16.114;2024-02-26T06:47:41;63958.03;;;1.48;100.00
48624;BME280;75490;45.802;16.114;2024-02-26T06:50:11;63971.91;;;1.61;100.00
48624;BME280;75490;45.802;16.114;2024-02-26T06:52:38;64001.81;;;1.87;100.00
48624;BME280;75490;45.802;16.114;2024-02-26T06:55:05;64023.16;;;2.07;100.00
48624;BME280;75490;45.802;16.114;2024-02-26T06:57:34;64044.56;;;2.30;100.00
48624;BME280;75490;45.802;16.114;2024-02-26T07:00:02;64068.56;;;2.50;100.00
48624;BME280;75490;45.802;16.114;2024-02-26T07:02:31;64089.47;;;2.73;100.00
48624;BME280;75490;45.802;16.114;2024-02-26T07:04:58;64112.38;;;2.90;100.00
48624;BME280;75490;45.802;16.114;2024-02-26T07:07:25;64125.31;;;3.12;100.00
48624;BME280;75490;45.802;16.114;2024-02-26T07:09:52;64173.94;;;3.53;100.00
48624;BME280;75490;45.802;16.114;2024-02-26T07:12:19;64188.94;;;3.67;100.00
48624;BME280;75490;45.802;16.114;2024-02-26T07:14:49;64227.47;;;4.06;100.00
48624;BME280;75490;45.802;16.114;2024-02-26T07:17:16;64255.84;;;4.33;100.00
48624;BME280;75490;45.802;16.114;2024-02-26T07:19:43;64315.81;;;4.90;100.00
48624;BME280;75490;45.802;16.114;2024-02-26T07:22:12;64342.03;;;5.12;100.00
48624;BME280;75490;45.802;16.114;2024-02-26T07:24:40;64357.59;;;5.29;100.00
48624;BME280;75490;45.802;16.114;2024-02-26T07:27:10;64336.16;;;5.09;100.00
48624;BME280;75490;45.802;16.114;2024-02-26T07:29:37;64392.44;;;5.65;100.00
48624;BME280;75490;45.802;16.114;2024-02-26T07:32:04;64432.09;;;5.97;100.00
48624;BME280;75490;45.802;16.114;2024-02-26T07:34:31;64455.16;;;6.22;100.00
48624;BME280;75490;45.802;16.114;2024-02-26T07:36:59;64505.56;;;6.64;100.00
48624;BME280;75490;45.802;16.114;2024-02-26T07:39:26;64524.91;;;6.88;100.00
48624;BME280;75490;45.802;16.114;2024-02-26T07:41:53;64532.97;;;6.95;100.00
48624;BME280;75490;45.802;16.114;2024-02-26T07:44:20;64566.78;;;7.32;100.00
48624;BME280;75490;45.802;16.114;2024-02-26T07:46:47;64516.88;;;6.83;100.00
48624;BME280;75490;45.802;16.114;2024-02-26T07:49:14;64564.09;;;7.27;100.00
48624;BME280;75490;45.802;16.114;2024-02-26T07:51:41;64588.78;;;7.51;100.00
48624;BME280;75490;45.802;16.114;2024-02-26T07:54:08;64589.88;;;7.52;100.00
48624;BME280;75490;45.802;16.114;2024-02-26T07:56:35;64670.94;;;8.28;100.00
48624;BME280;75490;45.802;16.114;2024-02-26T07:59:02;64602.75;;;7.64;100.00
48624;BME280;75490;45.802;16.114;2024-02-26T08:01:29;64604.88;;;7.61;100.00
48624;BME280;75490;45.802;16.114;2024-02-26T08:03:55;64640.28;;;7.94;100.00
48624;BME280;75490;45.802;16.114;2024-02-26T08:06:23;64714.50;;;8.69;100.00
48624;BME280;75490;45.802;16.114;2024-02-26T08:08:50;64796.72;;;9.44;100.00
48624;BME280;75490;45.802;16.114;2024-02-26T08:11:17;64683.31;;;8.40;100.00
48624;BME280;75490;45.802;16.114;2024-02-26T08:13:44;64687.09;;;8.43;100.00
48624;BME280;75490;45.802;16.114;2024-02-26T08:16:11;64686.56;;;8.43;100.00
48624;BME280;75490;45.802;16.114;2024-02-26T08:18:42;64774.72;;;9.26;100.00
48624;BME280;75490;45.802;16.114;2024-02-26T08:21:08;64844.63;;;9.92;100.00
48624;BME280;75490;45.802;16.114;2024-02-26T08:23:35;64773.06;;;9.19;100.00
48624;BME280;75490;45.802;16.114;2024-02-26T08:26:02;64821.47;;;9.68;100.00
48624;BME280;75490;45.802;16.114;2024-02-26T08:28:30;64796.72;;;9.44;100.00
48624;BME280;75490;45.802;16.114;2024-02-26T08:30:58;64772.03;;;9.29;100.00
48624;BME280;75490;45.802;16.114;2024-02-26T08:33:25;64859.69;;;10.06;100.00
48624;BME280;75490;45.802;16.114;2024-02-26T08:35:51;64815.56;;;9.65;100.00
48624;BME280;75490;45.802;16.114;2024-02-26T08:38:18;64772.00;;;9.23;100.00
48624;BME280;75490;45.802;16.114;2024-02-26T08:40:45;64797.81;;;9.48;100.00
48624;BME280;75490;45.802;16.114;2024-02-26T08:43:12;64780.06;;;9.26;100.00
48624;BME280;75490;45.802;16.114;2024-02-26T08:45:40;64862.38;;;10.14;100.00
48624;BME280;75490;45.802;16.114;2024-02-26T08:48:07;64866.69;;;10.15;100.00
48624;BME280;75490;45.802;16.114;2024-02-26T08:50:34;64915.69;;;10.59;100.00
48624;BME280;75490;45.802;16.114;2024-02-26T08:53:01;64900.59;;;10.45;100.00
48624;BME280;75490;45.802;16.114;2024-02-26T08:55:28;64910.28;;;10.51;100.00
48624;BME280;75490;45.802;16.114;2024-02-26T08:57:55;64964.66;;;11.02;100.00
48624;BME280;75490;45.802;16.114;2024-02-26T09:00:21;64889.28;;;10.31;100.00
48624;BME280;75490;45.802;16.114;2024-02-26T09:02:48;64887.66;;;10.25;100.00
48624;BME280;75490;45.802;16.114;2024-02-26T09:05:16;64943.69;;;10.90;100.00
48624;BME280;75490;45.802;16.114;2024-02-26T09:07:43;64996.47;;;11.40;100.00
48624;BME280;75490;45.802;16.114;2024-02-26T09:10:10;65006.69;;;11.42;100.00
48624;BME280;75490;45.802;16.114;2024-02-26T09:12:38;65033.06;;;11.67;100.00
48624;BME280;75490;45.802;16.114;2024-02-26T09:15:06;65019.06;;;11.56;100.00
48624;BME280;75490;45.802;16.114;2024-02-26T09:17:33;65015.28;;;11.50;100.00
48624;BME280;75490;45.802;16.114;2024-02-26T09:20:02;65064.91;;;11.99;100.00
48624;BME280;75490;45.802;16.114;2024-02-26T09:22:29;65051.44;;;11.84;100.00
48624;BME280;75490;45.802;16.114;2024-02-26T09:24:55;65088.06;;;12.16;100.00
48624;BME280;75490;45.802;16.114;2024-02-26T09:27:22;65053.56;;;11.84;100.00
48624;BME280;75490;45.802;16.114;2024-02-26T09:29:50;65071.91;;;12.06;100.00
48624;BME280;75490;45.802;16.114;2024-02-26T09:32:18;65072.97;;;12.07;100.00
48624;BME280;75490;45.802;16.114;2024-02-26T09:34:44;65103.16;;;12.35;100.00
48624;BME280;75490;45.802;16.114;2024-02-26T09:37:12;65087.53;;;12.18;100.00
48624;BME280;75490;45.802;16.114;2024-02-26T09:39:39;65131.75;;;12.60;100.00
48624;BME280;75490;45.802;16.114;2024-02-26T09:42:07;65120.44;;;12.52;100.00
48624;BME280;75490;45.802;16.114;2024-02-26T09:44:40;65111.25;;;12.45;100.00
48624;BME280;75490;45.802;16.114;2024-02-26T09:47:10;65083.22;;;12.19;100.00
48624;BME280;75490;45.802;16.114;2024-02-26T09:49:38;65116.09;;;12.48;100.00
48624;BME280;75490;45.802;16.114;2024-02-26T09:52:06;65129.06;;;12.62;100.00
48624;BME280;75490;45.802;16.114;2024-02-26T09:54:34;65165.72;;;12.89;100.00
48624;BME280;75490;45.802;16.114;2024-02-26T09:57:03;65174.38;;;13.07;100.00
48624;BME280;75490;45.802;16.114;2024-02-26T09:59:39;65215.94;;;13.39;95.01
48624;BME280;75490;45.802;16.114;2024-02-26T10:02:11;65201.34;;;13.28;93.62
48624;BME280;75490;45.802;16.114;2024-02-26T10:04:40;65194.88;;;13.22;91.92
48624;BME280;75490;45.802;16.114;2024-02-26T10:07:12;65172.19;;;13.00;91.19
48624;BME280;75490;45.802;16.114;2024-02-26T10:09:39;65221.31;;;13.46;90.35
48624;BME280;75490;45.802;16.114;2024-02-26T10:12:08;65302.28;;;14.22;80.54
48624;BME280;75490;45.802;16.114;2024-02-26T10:14:36;65197.03;;;13.24;83.84
48624;BME280;75490;45.802;16.114;2024-02-26T10:17:07;65195.44;;;13.22;88.40
48624;BME280;75490;45.802;16.114;2024-02-26T10:19:35;65174.34;;;12.97;88.38
48624;BME280;75490;45.802;16.114;2024-02-26T10:22:02;65184.59;;;13.12;90.86
48624;BME280;75490;45.802;16.114;2024-02-26T10:24:30;65241.28;;;13.65;83.34
48624;BME280;75490;45.802;16.114;2024-02-26T10:26:58;65270.44;;;13.93;84.43
48624;BME280;75490;45.802;16.114;2024-02-26T10:29:25;65286.09;;;14.05;76.78
48624;BME280;75490;45.802;16.114;2024-02-26T10:31:52;65333.09;;;14.51;75.11
48624;BME280;75490;45.802;16.114;2024-02-26T10:34:19;65276.38;;;14.01;75.60
48624;BME280;75490;45.802;16.114;2024-02-26T10:36:46;65252.63;;;13.76;73.08
48624;BME280;75490;45.802;16.114;2024-02-26T10:39:14;65289.88;;;14.16;75.64
48624;BME280;75490;45.802;16.114;2024-02-26T10:41:43;65268.28;;;13.96;72.36
48624;BME280;75490;45.802;16.114;2024-02-26T10:44:11;65285.00;;;14.09;69.30
48624;BME280;75490;45.802;16.114;2024-02-26T10:46:42;65285.56;;;14.07;68.31
48624;BME280;75490;45.802;16.114;2024-02-26T10:49:16;65291.47;;;14.10;70.20
48624;BME280;75490;45.802;16.114;2024-02-26T10:51:46;65301.22;;;14.24;70.09
48624;BME280;75490;45.802;16.114;2024-02-26T10:54:19;65318.50;;;14.40;69.48
48624;BME280;75490;45.802;16.114;2024-02-26T10:56:49;65286.63;;;14.08;67.33
48624;BME280;75490;45.802;16.114;2024-02-26T10:59:18;65272.59;;;13.95;67.38
48624;BME280;75490;45.802;16.114;2024-02-26T11:01:48;65254.25;;;13.80;66.42
48624;BME280;75490;45.802;16.114;2024-02-26T11:04:16;65243.44;;;13.70;67.30
48624;BME280;75490;45.802;16.114;2024-02-26T11:06:45;65265.56;;;13.85;65.90
48624;BME280;75490;45.802;16.114;2024-02-26T11:09:14;65260.16;;;13.83;66.15
48624;BME280;75490;45.802;16.114;2024-02-26T11:11:42;65259.09;;;13.87;64.76
48624;BME280;75490;45.802;16.114;2024-02-26T11:14:12;65326.63;;;14.45;60.21
48624;BME280;75490;45.802;16.114;2024-02-26T11:16:40;65350.38;;;14.70;58.90
48624;BME280;75490;45.802;16.114;2024-02-26T11:19:09;65368.75;;;14.85;58.34
48624;BME280;75490;45.802;16.114;2024-02-26T11:21:37;65375.75;;;14.91;60.67
48624;BME280;75490;45.802;16.114;2024-02-26T11:24:16;65391.97;;;15.07;55.81
48624;BME280;75490;45.802;16.114;2024-02-26T11:26:48;65391.44;;;15.06;53.31
48624;BME280;75490;45.802;16.114;2024-02-26T11:29:20;65423.88;;;15.42;52.48
48624;BME280;75490;45.802;16.114;2024-02-26T11:31:48;65439.00;;;15.51;52.88
48624;BME280;75490;45.802;16.114;2024-02-26T11:34:16;65404.41;;;15.18;50.21
48624;BME280;75490;45.802;16.114;2024-02-26T11:36:43;65373.06;;;14.91;50.71
48624;BME280;75490;45.802;16.114;2024-02-26T11:39:11;65364.97;;;14.84;53.18
48624;BME280;75490;45.802;16.114;2024-02-26T11:41:39;65386.03;;;15.01;51.77
48624;BME280;75490;45.802;16.114;2024-02-26T11:44:06;65406.56;;;15.25;51.36
48624;BME280;75490;45.802;16.114;2024-02-26T11:46:39;65436.84;;;15.49;50.04
48624;BME280;75490;45.802;16.114;2024-02-26T11:51:56;65461.19;;;15.72;48.20
48624;BME280;75490;45.802;16.114;2024-02-26T11:54:45;65407.66;;;15.24;46.91
48624;BME280;75490;45.802;16.114;2024-02-26T11:57:25;65443.91;;;15.58;48.08
48624;BME280;75490;45.802;16.114;2024-02-26T12:00:11;65448.75;;;15.60;48.03
48624;BME280;75490;45.802;16.114;2024-02-26T12:02:47;65436.84;;;15.49;49.27
48624;BME280;75490;45.802;16.114;2024-02-26T12:05:15;65411.97;;;15.31;48.74
48624;BME280;75490;45.802;16.114;2024-02-26T12:07:46;65407.13;;;15.16;48.74
48624;BME280;75490;45.802;16.114;2024-02-26T12:10:24;65406.56;;;15.25;51.11
48624;BME280;75490;45.802;16.114;2024-02-26T12:12:59;65374.13;;;14.90;50.28
48624;BME280;75490;45.802;16.114;2024-02-26T12:15:31;65407.13;;;15.26;49.98
48624;BME280;75490;45.802;16.114;2024-02-26T12:18:02;65446.03;;;15.60;50.03
48624;BME280;75490;45.802;16.114;2024-02-26T12:20:30;65434.13;;;15.51;49.72
48624;BME280;75490;45.802;16.114;2024-02-26T12:22:57;65421.16;;;15.37;48.59
48624;BME280;75490;45.802;16.114;2024-02-26T12:25:26;65423.88;;;15.37;48.04
48624;BME280;75490;45.802;16.114;2024-02-26T12:27:54;65484.97;;;15.96;48.52
48624;BME280;75490;45.802;16.114;2024-02-26T12:30:22;65512.56;;;16.20;48.35
48624;BME280;75490;45.802;16.114;2024-02-26T12:32:50;65485.53;;;15.94;47.99
48624;BME280;75490;45.802;16.114;2024-02-26T12:35:17;65441.19;;;15.58;48.61
48624;BME280;75490;45.802;16.114;2024-02-26T12:37:46;65430.88;;;15.46;48.04
48624;BME280;75490;45.802;16.114;2024-02-26T12:40:13;65439.00;;;15.51;48.87
48624;BME280;75490;45.802;16.114;2024-02-26T12:42:40;65436.84;;;15.54;49.22
48624;BME280;75490;45.802;16.114;2024-02-26T12:45:10;65380.09;;;14.98;47.41
48624;BME280;75490;45.802;16.114;2024-02-26T12:47:42;65399.00;;;15.08;48.10
48624;BME280;75490;45.802;16.114;2024-02-26T12:50:10;65385.50;;;15.01;48.26
48624;BME280;75490;45.802;16.114;2024-02-26T12:52:40;65349.28;;;14.64;47.28